sensor_id;sensor_type;location;lat;lon;timestamp;P1;durP1;ratioP1;P2;durP2;ratioP2
81124;SDS011;72192;52.114;5.424;2024-02-21T00:01:36;5.40;;;1.58;;
81124;SDS011;72192;52.114;5.424;2024-02-21T00:04:03;10.95;;;2.92;;
81124;SDS011;72192;52.114;5.424;2024-02-21T00:06:30;7.88;;;2.20;;
81124;SDS011;72192;52.114;5.424;2024-02-21T00:08:58;10.60;;;2.75;;
81124;SDS011;72192;52.114;5.424;2024-02-21T00:11:25;8.02;;;2.95;;
81124;SDS011;72192;52.114;5.424;2024-02-21T00:13:52;10.35;;;2.60;;
81124;SDS011;72192;52.114;5.424;2024-02-21T00:16:20;9.15;;;2.67;;
81124;SDS011;72192;52.114;5.424;2024-02-21T00:18:47;5.25;;;1.85;;
81124;SDS011;72192;52.114;5.424;2024-02-21T00:21:14;11.38;;;2.50;;
81124;SDS011;72192;52.114;5.424;2024-02-21T00:23:45;10.82;;;2.83;;
81124;SDS011;72192;52.114;5.424;2024-02-21T00:26:17;7.03;;;2.25;;
81124;SDS011;72192;52.114;5.424;2024-02-21T00:28:44;5.90;;;2.28;;
81124;SDS011;72192;52.114;5.424;2024-02-21T00:31:11;6.80;;;2.50;;
81124;SDS011;72192;52.114;5.424;2024-02-21T00:33:38;4.35;;;1.73;;
81124;SDS011;72192;52.114;5.424;2024-02-21T00:36:06;9.65;;;2.03;;
81124;SDS011;72192;52.114;5.424;2024-02-21T00:38:33;13.80;;;3.08;;
81124;SDS011;72192;52.114;5.424;2024-02-21T00:41:00;14.55;;;2.65;;
81124;SDS011;72192;52.114;5.424;2024-02-21T00:43:27;11.38;;;2.80;;
81124;SDS011;72192;52.114;5.424;2024-02-21T00:45:54;8.68;;;2.60;;
81124;SDS011;72192;52.114;5.424;2024-02-21T00:48:21;7.25;;;1.95;;
81124;SDS011;72192;52.114;5.424;2024-02-21T00:50:49;6.47;;;2.63;;
81124;SDS011;72192;52.114;5.424;2024-02-21T00:53:16;7.18;;;2.40;;
81124;SDS011;72192;52.114;5.424;2024-02-21T00:55:43;5.85;;;2.65;;
81124;SDS011;72192;52.114;5.424;2024-02-21T00:58:10;6.15;;;2.42;;
81124;SDS011;72192;52.114;5.424;2024-02-21T01:00:37;8.38;;;2.67;;
81124;SDS011;72192;52.114;5.424;2024-02-21T01:03:04;6.05;;;2.67;;
81124;SDS011;72192;52.114;5.424;2024-02-21T01:05:32;9.80;;;3.03;;
81124;SDS011;72192;52.114;5.424;2024-02-21T01:07:59;11.95;;;3.15;;
81124;SDS011;72192;52.114;5.424;2024-02-21T01:10:26;13.80;;;2.83;;
81124;SDS011;72192;52.114;5.424;2024-02-21T01:12:53;7.85;;;2.67;;
81124;SDS011;72192;52.114;5.424;2024-02-21T01:15:20;7.68;;;2.47;;
81124;SDS011;72192;52.114;5.424;2024-02-21T01:17:47;11.38;;;2.78;;
81124;SDS011;72192;52.114;5.424;2024-02-21T01:20:18;10.93;;;2.50;;
81124;SDS011;72192;52.114;5.424;2024-02-21T01:22:45;9.32;;;3.28;;
81124;SDS011;72192;52.114;5.424;2024-02-21T01:25:13;6.25;;;2.40;;
81124;SDS011;72192;52.114;5.424;2024-02-21T01:27:40;9.93;;;2.97;;
81124;SDS011;72192;52.114;5.424;2024-02-21T01:30:08;9.70;;;2.55;;
81124;SDS011;72192;52.114;5.424;2024-02-21T01:32:37;11.57;;;2.63;;
81124;SDS011;72192;52.114;5.424;2024-02-21T01:35:04;9.13;;;2.50;;
81124;SDS011;72192;52.114;5.424;2024-02-21T01:37:31;8.40;;;2.80;;
81124;SDS011;72192;52.114;5.424;2024-02-21T01:39:58;7.88;;;2.92;;
81124;SDS011;72192;52.114;5.424;2024-02-21T01:42:27;8.00;;;3.35;;
81124;SDS011;72192;52.114;5.424;2024-02-21T01:44:54;5.90;;;2.83;;
81124;SDS011;72192;52.114;5.424;2024-02-21T01:47:21;10.57;;;3.42;;
81124;SDS011;72192;52.114;5.424;2024-02-21T01:49:48;8.75;;;3.05;;
81124;SDS011;72192;52.114;5.424;2024-02-21T01:52:16;10.85;;;3.45;;
81124;SDS011;72192;52.114;5.424;2024-02-21T01:54:44;10.68;;;3.15;;
81124;SDS011;72192;52.114;5.424;2024-02-21T01:57:13;8.82;;;3.17;;
81124;SDS011;72192;52.114;5.424;2024-02-21T01:59:41;8.80;;;3.20;;
81124;SDS011;72192;52.114;5.424;2024-02-21T02:02:09;10.25;;;3.80;;
81124;SDS011;72192;52.114;5.424;2024-02-21T02:04:37;7.40;;;3.25;;
81124;SDS011;72192;52.114;5.424;2024-02-21T02:07:05;14.43;;;3.92;;
81124;SDS011;72192;52.114;5.424;2024-02-21T02:09:34;9.35;;;3.00;;
81124;SDS011;72192;52.114;5.424;2024-02-21T02:12:03;8.40;;;3.08;;
81124;SDS011;72192;52.114;5.424;2024-02-21T02:14:31;13.85;;;4.15;;
81124;SDS011;72192;52.114;5.424;2024-02-21T02:16:58;9.43;;;3.05;;
81124;SDS011;72192;52.114;5.424;2024-02-21T02:19:25;8.73;;;2.70;;
81124;SDS011;72192;52.114;5.424;2024-02-21T02:21:56;10.25;;;2.92;;
81124;SDS011;72192;52.114;5.424;2024-02-21T02:24:36;8.80;;;3.22;;
81124;SDS011;72192;52.114;5.424;2024-02-21T02:27:03;10.85;;;3.50;;
81124;SDS011;72192;52.114;5.424;2024-02-21T02:29:31;9.18;;;2.88;;
81124;SDS011;72192;52.114;5.424;2024-02-21T02:31:59;12.35;;;3.33;;
81124;SDS011;72192;52.114;5.424;2024-02-21T02:34:28;9.88;;;3.72;;
81124;SDS011;72192;52.114;5.424;2024-02-21T02:36:57;11.30;;;3.80;;
81124;SDS011;72192;52.114;5.424;2024-02-21T02:39:24;5.57;;;2.05;;
81124;SDS011;72192;52.114;5.424;2024-02-21T02:41:51;13.18;;;4.22;;
81124;SDS011;72192;52.114;5.424;2024-02-21T02:44:18;13.25;;;3.97;;
81124;SDS011;72192;52.114;5.424;2024-02-21T02:46:45;9.63;;;3.17;;
81124;SDS011;72192;52.114;5.424;2024-02-21T02:49:12;7.93;;;3.17;;
81124;SDS011;72192;52.114;5.424;2024-02-21T02:51:42;6.50;;;2.15;;
81124;SDS011;72192;52.114;5.424;2024-02-21T02:54:12;9.00;;;3.20;;
81124;SDS011;72192;52.114;5.424;2024-02-21T02:56:39;12.05;;;3.53;;
81124;SDS011;72192;52.114;5.424;2024-02-21T02:59:06;11.10;;;3.30;;
81124;SDS011;72192;52.114;5.424;2024-02-21T03:01:35;7.78;;;2.40;;
81124;SDS011;72192;52.114;5.424;2024-02-21T03:04:02;12.48;;;3.70;;
81124;SDS011;72192;52.114;5.424;2024-02-21T03:06:29;10.98;;;3.60;;
81124;SDS011;72192;52.114;5.424;2024-02-21T03:08:56;11.65;;;3.70;;
81124;SDS011;72192;52.114;5.424;2024-02-21T03:11:24;7.93;;;3.42;;
81124;SDS011;72192;52.114;5.424;2024-02-21T03:13:56;10.07;;;3.67;;
81124;SDS011;72192;52.114;5.424;2024-02-21T03:16:23;13.35;;;3.10;;
81124;SDS011;72192;52.114;5.424;2024-02-21T03:18:51;11.27;;;3.13;;
81124;SDS011;72192;52.114;5.424;2024-02-21T03:21:18;11.80;;;2.80;;
81124;SDS011;72192;52.114;5.424;2024-02-21T03:23:46;8.60;;;2.90;;
81124;SDS011;72192;52.114;5.424;2024-02-21T03:26:13;9.65;;;3.22;;
81124;SDS011;72192;52.114;5.424;2024-02-21T03:28:43;8.80;;;3.38;;
81124;SDS011;72192;52.114;5.424;2024-02-21T03:31:14;7.90;;;3.40;;
81124;SDS011;72192;52.114;5.424;2024-02-21T03:33:42;12.00;;;3.05;;
81124;SDS011;72192;52.114;5.424;2024-02-21T03:36:13;15.38;;;3.50;;
81124;SDS011;72192;52.114;5.424;2024-02-21T03:38:41;16.88;;;3.38;;
81124;SDS011;72192;52.114;5.424;2024-02-21T03:41:10;8.85;;;3.53;;
81124;SDS011;72192;52.114;5.424;2024-02-21T03:43:37;6.80;;;2.90;;
81124;SDS011;72192;52.114;5.424;2024-02-21T03:46:05;20.15;;;4.18;;
81124;SDS011;72192;52.114;5.424;2024-02-21T03:48:33;10.75;;;3.60;;
81124;SDS011;72192;52.114;5.424;2024-02-21T03:51:00;8.05;;;3.17;;
81124;SDS011;72192;52.114;5.424;2024-02-21T03:53:27;7.22;;;3.13;;
81124;SDS011;72192;52.114;5.424;2024-02-21T03:55:55;10.63;;;3.42;;
81124;SDS011;72192;52.114;5.424;2024-02-21T03:58:23;8.32;;;3.30;;
81124;SDS011;72192;52.114;5.424;2024-02-21T04:00:50;12.13;;;3.05;;
81124;SDS011;72192;52.114;5.424;2024-02-21T04:03:18;8.05;;;3.35;;
81124;SDS011;72192;52.114;5.424;2024-02-21T04:05:46;9.52;;;3.47;;
81124;SDS011;72192;52.114;5.424;2024-02-21T04:08:14;9.13;;;4.22;;
81124;SDS011;72192;52.114;5.424;2024-02-21T04:10:41;11.18;;;3.67;;
81124;SDS011;72192;52.114;5.424;2024-02-21T04:13:09;7.72;;;2.80;;
81124;SDS011;72192;52.114;5.424;2024-02-21T04:15:36;8.57;;;3.05;;
81124;SDS011;72192;52.114;5.424;2024-02-21T04:18:03;10.63;;;3.47;;
81124;SDS011;72192;52.114;5.424;2024-02-21T04:20:30;16.23;;;2.80;;
81124;SDS011;72192;52.114;5.424;2024-02-21T04:22:58;11.43;;;3.15;;
81124;SDS011;72192;52.114;5.424;2024-02-21T04:25:26;9.00;;;3.22;;
81124;SDS011;72192;52.114;5.424;2024-02-21T04:27:53;9.50;;;2.80;;
81124;SDS011;72192;52.114;5.424;2024-02-21T04:30:20;11.48;;;3.28;;
81124;SDS011;72192;52.114;5.424;2024-02-21T04:32:48;6.78;;;3.33;;
81124;SDS011;72192;52.114;5.424;2024-02-21T04:35:21;10.70;;;3.70;;
81124;SDS011;72192;52.114;5.424;2024-02-21T04:37:49;7.88;;;2.95;;
81124;SDS011;72192;52.114;5.424;2024-02-21T04:40:16;9.88;;;3.15;;
81124;SDS011;72192;52.114;5.424;2024-02-21T04:42:43;6.93;;;2.60;;
81124;SDS011;72192;52.114;5.424;2024-02-21T04:45:10;10.73;;;3.17;;
81124;SDS011;72192;52.114;5.424;2024-02-21T04:47:38;11.45;;;3.33;;
81124;SDS011;72192;52.114;5.424;2024-02-21T04:50:05;9.48;;;3.55;;
81124;SDS011;72192;52.114;5.424;2024-02-21T04:52:33;8.55;;;3.13;;
81124;SDS011;72192;52.114;5.424;2024-02-21T04:55:00;10.55;;;3.53;;
81124;SDS011;72192;52.114;5.424;2024-02-21T04:57:27;9.50;;;2.92;;
81124;SDS011;72192;52.114;5.424;2024-02-21T04:59:55;3.72;;;1.85;;
81124;SDS011;72192;52.114;5.424;2024-02-21T05:02:23;11.70;;;4.35;;
81124;SDS011;72192;52.114;5.424;2024-02-21T05:04:51;9.90;;;4.00;;
81124;SDS011;72192;52.114;5.424;2024-02-21T05:07:18;7.40;;;2.83;;
81124;SDS011;72192;52.114;5.424;2024-02-21T05:09:47;15.02;;;3.70;;
81124;SDS011;72192;52.114;5.424;2024-02-21T05:12:14;10.05;;;3.38;;
81124;SDS011;72192;52.114;5.424;2024-02-21T05:14:41;8.90;;;3.58;;
81124;SDS011;72192;52.114;5.424;2024-02-21T05:17:08;17.15;;;4.53;;
81124;SDS011;72192;52.114;5.424;2024-02-21T05:19:35;12.50;;;4.63;;
81124;SDS011;72192;52.114;5.424;2024-02-21T05:22:03;9.50;;;3.90;;
81124;SDS011;72192;52.114;5.424;2024-02-21T05:24:30;15.77;;;4.22;;
81124;SDS011;72192;52.114;5.424;2024-02-21T05:26:59;9.13;;;3.17;;
81124;SDS011;72192;52.114;5.424;2024-02-21T05:29:26;9.57;;;4.13;;
81124;SDS011;72192;52.114;5.424;2024-02-21T05:34:21;7.90;;;3.88;;
81124;SDS011;72192;52.114;5.424;2024-02-21T05:36:48;8.82;;;2.85;;
81124;SDS011;72192;52.114;5.424;2024-02-21T05:39:19;8.32;;;3.50;;
81124;SDS011;72192;52.114;5.424;2024-02-21T05:41:49;8.07;;;3.65;;
81124;SDS011;72192;52.114;5.424;2024-02-21T05:44:18;12.88;;;3.60;;
81124;SDS011;72192;52.114;5.424;2024-02-21T05:46:45;9.25;;;4.20;;
81124;SDS011;72192;52.114;5.424;2024-02-21T05:49:13;14.63;;;4.78;;
81124;SDS011;72192;52.114;5.424;2024-02-21T05:51:40;9.15;;;3.30;;
81124;SDS011;72192;52.114;5.424;2024-02-21T05:54:07;12.38;;;4.18;;
81124;SDS011;72192;52.114;5.424;2024-02-21T05:56:34;11.85;;;3.78;;
81124;SDS011;72192;52.114;5.424;2024-02-21T05:59:01;8.70;;;3.63;;
81124;SDS011;72192;52.114;5.424;2024-02-21T06:01:29;10.77;;;4.60;;
81124;SDS011;72192;52.114;5.424;2024-02-21T06:03:56;12.15;;;4.82;;
81124;SDS011;72192;52.114;5.424;2024-02-21T06:06:23;7.78;;;3.13;;
81124;SDS011;72192;52.114;5.424;2024-02-21T06:08:50;8.57;;;3.33;;
81124;SDS011;72192;52.114;5.424;2024-02-21T06:11:19;9.63;;;3.92;;
81124;SDS011;72192;52.114;5.424;2024-02-21T06:13:46;10.18;;;4.10;;
81124;SDS011;72192;52.114;5.424;2024-02-21T06:16:13;11.02;;;4.97;;
81124;SDS011;72192;52.114;5.424;2024-02-21T06:18:40;12.38;;;4.32;;
81124;SDS011;72192;52.114;5.424;2024-02-21T06:21:07;14.65;;;5.43;;
81124;SDS011;72192;52.114;5.424;2024-02-21T06:23:36;9.60;;;4.68;;
81124;SDS011;72192;52.114;5.424;2024-02-21T06:26:03;9.95;;;4.30;;
81124;SDS011;72192;52.114;5.424;2024-02-21T06:28:30;12.52;;;4.97;;
81124;SDS011;72192;52.114;5.424;2024-02-21T06:30:57;10.73;;;4.45;;
81124;SDS011;72192;52.114;5.424;2024-02-21T06:33:24;11.35;;;3.97;;
81124;SDS011;72192;52.114;5.424;2024-02-21T06:35:51;14.32;;;6.20;;
81124;SDS011;72192;52.114;5.424;2024-02-21T06:38:19;11.90;;;5.72;;
81124;SDS011;72192;52.114;5.424;2024-02-21T06:40:49;12.95;;;3.70;;
81124;SDS011;72192;52.114;5.424;2024-02-21T06:43:19;14.95;;;5.60;;
81124;SDS011;72192;52.114;5.424;2024-02-21T06:45:47;12.50;;;4.90;;
81124;SDS011;72192;52.114;5.424;2024-02-21T06:48:17;12.95;;;5.38;;
81124;SDS011;72192;52.114;5.424;2024-02-21T06:50:46;11.20;;;5.63;;
81124;SDS011;72192;52.114;5.424;2024-02-21T06:53:13;17.77;;;6.38;;
81124;SDS011;72192;52.114;5.424;2024-02-21T06:55:40;11.48;;;5.22;;
81124;SDS011;72192;52.114;5.424;2024-02-21T06:58:07;15.70;;;5.50;;
81124;SDS011;72192;52.114;5.424;2024-02-21T07:00:38;16.30;;;6.85;;
81124;SDS011;72192;52.114;5.424;2024-02-21T07:03:08;18.38;;;6.75;;
81124;SDS011;72192;52.114;5.424;2024-02-21T07:05:35;16.00;;;6.55;;
81124;SDS011;72192;52.114;5.424;2024-02-21T07:08:02;15.75;;;7.07;;
81124;SDS011;72192;52.114;5.424;2024-02-21T07:10:37;11.07;;;4.93;;
81124;SDS011;72192;52.114;5.424;2024-02-21T07:13:04;13.20;;;4.50;;
81124;SDS011;72192;52.114;5.424;2024-02-21T07:15:31;15.25;;;6.05;;
81124;SDS011;72192;52.114;5.424;2024-02-21T07:17:59;13.48;;;6.30;;
81124;SDS011;72192;52.114;5.424;2024-02-21T07:20:26;16.60;;;6.82;;
81124;SDS011;72192;52.114;5.424;2024-02-21T07:22:54;12.15;;;5.10;;
81124;SDS011;72192;52.114;5.424;2024-02-21T07:25:21;9.52;;;4.35;;
81124;SDS011;72192;52.114;5.424;2024-02-21T07:27:48;13.38;;;5.55;;
81124;SDS011;72192;52.114;5.424;2024-02-21T07:30:15;13.50;;;5.28;;
81124;SDS011;72192;52.114;5.424;2024-02-21T07:32:43;13.55;;;4.82;;
81124;SDS011;72192;52.114;5.424;2024-02-21T07:35:10;12.00;;;4.55;;
81124;SDS011;72192;52.114;5.424;2024-02-21T07:37:42;12.25;;;5.28;;
81124;SDS011;72192;52.114;5.424;2024-02-21T07:40:13;16.27;;;5.40;;
81124;SDS011;72192;52.114;5.424;2024-02-21T07:42:43;15.80;;;5.63;;
81124;SDS011;72192;52.114;5.424;2024-02-21T07:45:16;15.75;;;6.35;;
81124;SDS011;72192;52.114;5.424;2024-02-21T07:47:46;13.55;;;6.13;;
81124;SDS011;72192;52.114;5.424;2024-02-21T07:50:13;9.25;;;3.90;;
81124;SDS011;72192;52.114;5.424;2024-02-21T07:52:40;10.20;;;4.18;;
81124;SDS011;72192;52.114;5.424;2024-02-21T07:55:07;12.35;;;5.32;;
81124;SDS011;72192;52.114;5.424;2024-02-21T07:57:36;16.13;;;5.28;;
81124;SDS011;72192;52.114;5.424;2024-02-21T08:00:06;14.27;;;5.30;;
81124;SDS011;72192;52.114;5.424;2024-02-21T08:02:39;12.65;;;4.78;;
81124;SDS011;72192;52.114;5.424;2024-02-21T08:05:06;11.27;;;4.95;;
81124;SDS011;72192;52.114;5.424;2024-02-21T08:07:33;8.07;;;4.30;;
81124;SDS011;72192;52.114;5.424;2024-02-21T08:10:01;13.63;;;5.85;;
81124;SDS011;72192;52.114;5.424;2024-02-21T08:12:28;11.90;;;4.80;;
81124;SDS011;72192;52.114;5.424;2024-02-21T08:14:55;11.60;;;4.78;;
81124;SDS011;72192;52.114;5.424;2024-02-21T08:17:22;13.95;;;5.93;;
81124;SDS011;72192;52.114;5.424;2024-02-21T08:19:49;12.35;;;4.60;;
81124;SDS011;72192;52.114;5.424;2024-02-21T08:22:16;9.77;;;4.65;;
81124;SDS011;72192;52.114;5.424;2024-02-21T08:24:44;13.13;;;5.13;;
81124;SDS011;72192;52.114;5.424;2024-02-21T08:27:11;16.38;;;4.75;;
81124;SDS011;72192;52.114;5.424;2024-02-21T08:32:10;8.43;;;4.38;;
81124;SDS011;72192;52.114;5.424;2024-02-21T08:34:37;15.20;;;5.60;;
81124;SDS011;72192;52.114;5.424;2024-02-21T08:37:04;13.95;;;6.00;;
81124;SDS011;72192;52.114;5.424;2024-02-21T08:39:31;14.20;;;6.57;;
81124;SDS011;72192;52.114;5.424;2024-02-21T08:41:58;17.58;;;6.15;;
81124;SDS011;72192;52.114;5.424;2024-02-21T08:44:27;14.18;;;5.13;;
81124;SDS011;72192;52.114;5.424;2024-02-21T08:46:55;13.32;;;6.10;;
81124;SDS011;72192;52.114;5.424;2024-02-21T08:49:23;12.43;;;6.22;;
81124;SDS011;72192;52.114;5.424;2024-02-21T08:51:57;9.55;;;4.13;;
81124;SDS011;72192;52.114;5.424;2024-02-21T08:54:24;8.27;;;3.72;;
81124;SDS011;72192;52.114;5.424;2024-02-21T08:56:52;13.90;;;6.40;;
81124;SDS011;72192;52.114;5.424;2024-02-21T08:59:21;10.93;;;4.18;;
81124;SDS011;72192;52.114;5.424;2024-02-21T09:01:48;9.30;;;4.30;;
81124;SDS011;72192;52.114;5.424;2024-02-21T09:04:15;5.35;;;3.03;;
81124;SDS011;72192;52.114;5.424;2024-02-21T09:06:42;11.75;;;4.03;;
81124;SDS011;72192;52.114;5.424;2024-02-21T09:09:11;14.80;;;5.82;;
81124;SDS011;72192;52.114;5.424;2024-02-21T09:11:39;14.73;;;4.53;;
81124;SDS011;72192;52.114;5.424;2024-02-21T09:14:09;9.63;;;3.88;;
81124;SDS011;72192;52.114;5.424;2024-02-21T09:16:36;10.50;;;4.25;;
81124;SDS011;72192;52.114;5.424;2024-02-21T09:19:03;12.48;;;5.15;;
81124;SDS011;72192;52.114;5.424;2024-02-21T09:21:30;7.28;;;3.95;;
81124;SDS011;72192;52.114;5.424;2024-02-21T09:23:58;8.95;;;3.63;;
81124;SDS011;72192;52.114;5.424;2024-02-21T09:26:26;13.38;;;5.40;;
81124;SDS011;72192;52.114;5.424;2024-02-21T09:28:53;13.85;;;5.20;;
81124;SDS011;72192;52.114;5.424;2024-02-21T09:31:22;11.93;;;3.88;;
81124;SDS011;72192;52.114;5.424;2024-02-21T09:33:49;15.10;;;5.28;;
81124;SDS011;72192;52.114;5.424;2024-02-21T09:36:17;11.35;;;4.30;;
81124;SDS011;72192;52.114;5.424;2024-02-21T09:38:44;12.23;;;5.03;;
81124;SDS011;72192;52.114;5.424;2024-02-21T09:41:15;12.38;;;5.03;;
81124;SDS011;72192;52.114;5.424;2024-02-21T09:43:57;14.57;;;4.20;;
81124;SDS011;72192;52.114;5.424;2024-02-21T09:46:25;9.25;;;4.43;;
81124;SDS011;72192;52.114;5.424;2024-02-21T09:49:15;10.73;;;5.00;;
81124;SDS011;72192;52.114;5.424;2024-02-21T09:52:00;12.15;;;5.63;;
81124;SDS011;72192;52.114;5.424;2024-02-21T09:54:34;15.10;;;3.95;;
81124;SDS011;72192;52.114;5.424;2024-02-21T09:57:04;13.02;;;4.82;;
81124;SDS011;72192;52.114;5.424;2024-02-21T09:59:32;8.98;;;3.03;;
81124;SDS011;72192;52.114;5.424;2024-02-21T10:02:00;10.50;;;3.55;;
81124;SDS011;72192;52.114;5.424;2024-02-21T10:04:29;12.30;;;2.40;;
81124;SDS011;72192;52.114;5.424;2024-02-21T10:06:57;11.00;;;4.05;;
81124;SDS011;72192;52.114;5.424;2024-02-21T10:09:25;10.15;;;4.57;;
81124;SDS011;72192;52.114;5.424;2024-02-21T10:11:56;10.70;;;4.53;;
81124;SDS011;72192;52.114;5.424;2024-02-21T10:14:38;6.85;;;4.03;;
81124;SDS011;72192;52.114;5.424;2024-02-21T10:17:07;6.97;;;2.85;;
81124;SDS011;72192;52.114;5.424;2024-02-21T10:19:45;10.90;;;3.92;;
81124;SDS011;72192;52.114;5.424;2024-02-21T10:22:14;7.75;;;3.30;;
81124;SDS011;72192;52.114;5.424;2024-02-21T10:24:42;7.05;;;3.45;;
81124;SDS011;72192;52.114;5.424;2024-02-21T10:27:10;6.38;;;2.13;;
81124;SDS011;72192;52.114;5.424;2024-02-21T10:32:12;11.23;;;4.15;;
81124;SDS011;72192;52.114;5.424;2024-02-21T10:34:41;8.07;;;3.47;;
81124;SDS011;72192;52.114;5.424;2024-02-21T10:37:11;8.98;;;3.60;;
81124;SDS011;72192;52.114;5.424;2024-02-21T10:39:41;8.52;;;3.55;;
81124;SDS011;72192;52.114;5.424;2024-02-21T10:42:11;10.50;;;3.53;;
81124;SDS011;72192;52.114;5.424;2024-02-21T10:44:39;5.70;;;2.40;;
81124;SDS011;72192;52.114;5.424;2024-02-21T10:47:15;8.77;;;3.30;;
81124;SDS011;72192;52.114;5.424;2024-02-21T10:49:49;7.88;;;2.92;;
81124;SDS011;72192;52.114;5.424;2024-02-21T10:55:08;7.22;;;2.80;;
81124;SDS011;72192;52.114;5.424;2024-02-21T10:57:46;6.40;;;3.30;;
81124;SDS011;72192;52.114;5.424;2024-02-21T11:00:15;6.70;;;3.00;;
81124;SDS011;72192;52.114;5.424;2024-02-21T11:02:45;11.38;;;4.10;;
81124;SDS011;72192;52.114;5.424;2024-02-21T11:05:14;11.15;;;3.67;;
81124;SDS011;72192;52.114;5.424;2024-02-21T11:07:44;8.48;;;3.63;;
81124;SDS011;72192;52.114;5.424;2024-02-21T11:10:20;8.15;;;3.67;;
81124;SDS011;72192;52.114;5.424;2024-02-21T11:12:54;6.25;;;3.15;;
81124;SDS011;72192;52.114;5.424;2024-02-21T11:15:35;7.25;;;3.40;;
81124;SDS011;72192;52.114;5.424;2024-02-21T11:18:02;7.25;;;3.20;;
81124;SDS011;72192;52.114;5.424;2024-02-21T11:20:33;5.75;;;2.40;;
81124;SDS011;72192;52.114;5.424;2024-02-21T11:23:02;8.68;;;4.15;;
81124;SDS011;72192;52.114;5.424;2024-02-21T11:25:29;8.90;;;3.40;;
81124;SDS011;72192;52.114;5.424;2024-02-21T11:28:04;9.57;;;3.50;;
81124;SDS011;72192;52.114;5.424;2024-02-21T11:30:36;6.63;;;3.15;;
81124;SDS011;72192;52.114;5.424;2024-02-21T11:33:06;5.65;;;2.85;;
81124;SDS011;72192;52.114;5.424;2024-02-21T11:35:34;10.10;;;3.97;;
81124;SDS011;72192;52.114;5.424;2024-02-21T11:40:38;5.68;;;2.75;;
81124;SDS011;72192;52.114;5.424;2024-02-21T11:43:08;7.68;;;3.55;;
81124;SDS011;72192;52.114;5.424;2024-02-21T11:45:35;5.22;;;2.72;;
81124;SDS011;72192;52.114;5.424;2024-02-21T11:48:02;6.10;;;2.90;;
81124;SDS011;72192;52.114;5.424;2024-02-21T11:50:34;9.07;;;3.65;;
81124;SDS011;72192;52.114;5.424;2024-02-21T11:53:06;7.68;;;3.63;;
81124;SDS011;72192;52.114;5.424;2024-02-21T11:55:34;8.32;;;2.97;;
81124;SDS011;72192;52.114;5.424;2024-02-21T11:58:02;5.63;;;2.45;;
81124;SDS011;72192;52.114;5.424;2024-02-21T12:00:29;10.68;;;4.13;;
81124;SDS011;72192;52.114;5.424;2024-02-21T12:02:57;11.27;;;4.25;;
81124;SDS011;72192;52.114;5.424;2024-02-21T12:05:29;10.13;;;4.35;;
81124;SDS011;72192;52.114;5.424;2024-02-21T12:07:57;8.18;;;3.65;;
81124;SDS011;72192;52.114;5.424;2024-02-21T12:10:28;9.55;;;3.67;;
81124;SDS011;72192;52.114;5.424;2024-02-21T12:13:10;11.60;;;4.65;;
81124;SDS011;72192;52.114;5.424;2024-02-21T12:15:38;7.78;;;3.65;;
81124;SDS011;72192;52.114;5.424;2024-02-21T12:18:07;8.07;;;3.58;;
81124;SDS011;72192;52.114;5.424;2024-02-21T12:20:34;7.82;;;4.03;;
81124;SDS011;72192;52.114;5.424;2024-02-21T12:23:03;8.07;;;3.38;;
81124;SDS011;72192;52.114;5.424;2024-02-21T12:25:31;8.88;;;3.83;;
81124;SDS011;72192;52.114;5.424;2024-02-21T12:27:58;7.70;;;3.55;;
81124;SDS011;72192;52.114;5.424;2024-02-21T12:30:30;8.40;;;3.33;;
81124;SDS011;72192;52.114;5.424;2024-02-21T12:33:00;6.50;;;3.10;;
81124;SDS011;72192;52.114;5.424;2024-02-21T12:35:30;5.45;;;2.50;;
81124;SDS011;72192;52.114;5.424;2024-02-21T12:38:00;8.38;;;4.03;;
81124;SDS011;72192;52.114;5.424;2024-02-21T12:40:28;8.13;;;3.25;;
81124;SDS011;72192;52.114;5.424;2024-02-21T12:42:59;7.13;;;3.13;;
81124;SDS011;72192;52.114;5.424;2024-02-21T12:45:30;7.63;;;3.13;;
81124;SDS011;72192;52.114;5.424;2024-02-21T12:47:57;8.98;;;3.70;;
81124;SDS011;72192;52.114;5.424;2024-02-21T12:50:25;6.65;;;3.40;;
81124;SDS011;72192;52.114;5.424;2024-02-21T12:52:53;11.75;;;4.45;;
81124;SDS011;72192;52.114;5.424;2024-02-21T12:55:21;7.60;;;3.22;;
81124;SDS011;72192;52.114;5.424;2024-02-21T12:57:48;8.02;;;3.67;;
81124;SDS011;72192;52.114;5.424;2024-02-21T13:00:15;8.40;;;2.75;;
81124;SDS011;72192;52.114;5.424;2024-02-21T13:02:44;9.23;;;2.65;;
81124;SDS011;72192;52.114;5.424;2024-02-21T13:05:14;8.57;;;3.28;;
81124;SDS011;72192;52.114;5.424;2024-02-21T13:07:46;6.43;;;2.67;;
81124;SDS011;72192;52.114;5.424;2024-02-21T13:10:18;7.30;;;3.20;;
81124;SDS011;72192;52.114;5.424;2024-02-21T13:12:46;10.43;;;3.60;;
81124;SDS011;72192;52.114;5.424;2024-02-21T13:15:13;6.53;;;2.83;;
81124;SDS011;72192;52.114;5.424;2024-02-21T13:17:45;5.82;;;2.50;;
81124;SDS011;72192;52.114;5.424;2024-02-21T13:20:13;8.10;;;2.88;;
81124;SDS011;72192;52.114;5.424;2024-02-21T13:22:40;6.38;;;2.70;;
81124;SDS011;72192;52.114;5.424;2024-02-21T13:25:07;7.90;;;3.17;;
81124;SDS011;72192;52.114;5.424;2024-02-21T13:27:35;7.70;;;3.40;;
81124;SDS011;72192;52.114;5.424;2024-02-21T13:30:02;6.03;;;2.67;;
81124;SDS011;72192;52.114;5.424;2024-02-21T13:32:32;9.45;;;2.97;;
81124;SDS011;72192;52.114;5.424;2024-02-21T13:34:59;4.90;;;2.30;;
81124;SDS011;72192;52.114;5.424;2024-02-21T13:37:27;7.55;;;2.30;;
81124;SDS011;72192;52.114;5.424;2024-02-21T13:39:55;9.98;;;3.08;;
81124;SDS011;72192;52.114;5.424;2024-02-21T13:42:22;5.43;;;3.28;;
81124;SDS011;72192;52.114;5.424;2024-02-21T13:44:54;6.90;;;2.88;;
81124;SDS011;72192;52.114;5.424;2024-02-21T13:47:27;6.45;;;2.55;;
81124;SDS011;72192;52.114;5.424;2024-02-21T13:49:54;9.25;;;3.00;;
81124;SDS011;72192;52.114;5.424;2024-02-21T13:52:22;5.88;;;2.63;;
81124;SDS011;72192;52.114;5.424;2024-02-21T13:54:49;5.47;;;1.95;;
81124;SDS011;72192;52.114;5.424;2024-02-21T13:57:18;6.18;;;2.65;;
81124;SDS011;72192;52.114;5.424;2024-02-21T13:59:45;7.03;;;2.28;;
81124;SDS011;72192;52.114;5.424;2024-02-21T14:02:12;6.93;;;2.70;;
81124;SDS011;72192;52.114;5.424;2024-02-21T14:04:39;7.88;;;2.38;;
81124;SDS011;72192;52.114;5.424;2024-02-21T14:07:07;4.40;;;2.20;;
81124;SDS011;72192;52.114;5.424;2024-02-21T14:09:35;6.10;;;2.35;;
81124;SDS011;72192;52.114;5.424;2024-02-21T14:12:02;10.00;;;2.70;;
81124;SDS011;72192;52.114;5.424;2024-02-21T14:14:30;3.65;;;1.70;;
81124;SDS011;72192;52.114;5.424;2024-02-21T14:16:57;8.38;;;3.10;;
81124;SDS011;72192;52.114;5.424;2024-02-21T14:19:24;8.93;;;2.63;;
81124;SDS011;72192;52.114;5.424;2024-02-21T14:21:51;5.47;;;2.67;;
81124;SDS011;72192;52.114;5.424;2024-02-21T14:24:19;6.95;;;2.47;;
81124;SDS011;72192;52.114;5.424;2024-02-21T14:26:46;5.72;;;2.28;;
81124;SDS011;72192;52.114;5.424;2024-02-21T14:29:16;6.40;;;2.35;;
81124;SDS011;72192;52.114;5.424;2024-02-21T14:31:43;7.20;;;2.20;;
81124;SDS011;72192;52.114;5.424;2024-02-21T14:34:10;4.85;;;2.10;;
81124;SDS011;72192;52.114;5.424;2024-02-21T14:36:39;6.03;;;2.67;;
81124;SDS011;72192;52.114;5.424;2024-02-21T14:39:08;4.40;;;2.63;;
81124;SDS011;72192;52.114;5.424;2024-02-21T14:41:35;6.55;;;2.30;;
81124;SDS011;72192;52.114;5.424;2024-02-21T14:44:02;6.43;;;1.98;;
81124;SDS011;72192;52.114;5.424;2024-02-21T14:46:31;7.93;;;2.47;;
81124;SDS011;72192;52.114;5.424;2024-02-21T14:48:59;5.90;;;2.25;;
81124;SDS011;72192;52.114;5.424;2024-02-21T14:51:26;6.70;;;2.05;;
81124;SDS011;72192;52.114;5.424;2024-02-21T14:53:53;8.60;;;2.75;;
81124;SDS011;72192;52.114;5.424;2024-02-21T14:56:27;4.28;;;1.63;;
81124;SDS011;72192;52.114;5.424;2024-02-21T14:58:54;6.32;;;2.05;;
81124;SDS011;72192;52.114;5.424;2024-02-21T15:01:35;5.90;;;2.85;;
81124;SDS011;72192;52.114;5.424;2024-02-21T15:06:34;5.93;;;1.92;;